createdAt,value
2018-04-08T00:00:16.808Z,9.40
2018-04-08T00:02:43.080Z,9.30
2018-04-08T00:05:09.342Z,9.87
2018-04-08T00:07:35.606Z,8.87
2018-04-08T00:10:01.859Z,9.57
2018-04-08T00:12:28.844Z,8.93
2018-04-08T00:14:55.034Z,7.87
2018-04-08T00:17:21.350Z,9.37
2018-04-08T00:19:47.666Z,9.50
2018-04-08T00:22:13.994Z,9.13
2018-04-08T00:24:40.245Z,7.67
2018-04-08T00:27:06.463Z,9.37
2018-04-08T00:29:32.672Z,8.73
2018-04-08T00:31:58.897Z,8.00
2018-04-08T00:34:25.236Z,8.57
2018-04-08T00:36:51.494Z,9.20
2018-04-08T00:39:18.020Z,9.70
2018-04-08T00:41:44.306Z,9.13
2018-04-08T00:44:10.557Z,6.90
2018-04-08T00:46:36.808Z,7.63
2018-04-08T00:49:03.090Z,10.33
2018-04-08T00:51:29.411Z,7.43
2018-04-08T00:54:08.217Z,6.77
2018-04-08T00:56:34.473Z,6.67
2018-04-08T00:59:00.697Z,11.77
2018-04-08T01:01:27.746Z,9.67
2018-04-08T01:03:54.225Z,9.03
2018-04-08T01:06:20.548Z,11.23
2018-04-08T01:08:46.805Z,9.73
2018-04-08T01:11:13.787Z,8.57
2018-04-08T01:13:40.076Z,10.10
2018-04-08T01:16:07.171Z,8.23
2018-04-08T01:18:34.345Z,10.50
2018-04-08T01:21:01.482Z,9.87
2018-04-08T01:23:28.595Z,7.53
2018-04-08T01:25:55.790Z,13.90
2018-04-08T01:28:22.453Z,11.70
2018-04-08T01:30:49.470Z,9.07
2018-04-08T01:33:16.485Z,11.03
2018-04-08T01:35:42.730Z,10.07
2018-04-08T01:40:42.096Z,7.60
2018-04-08T01:43:08.369Z,10.77
2018-04-08T01:45:34.593Z,9.57
2018-04-08T01:48:00.881Z,10.73
2018-04-08T01:50:27.203Z,8.93
2018-04-08T01:52:54.166Z,9.33
2018-04-08T01:55:20.435Z,10.27
2018-04-08T01:57:46.651Z,10.60
2018-04-08T02:00:12.898Z,11.43
2018-04-08T02:02:39.132Z,10.60
2018-04-08T02:05:05.486Z,9.03
2018-04-08T02:07:31.795Z,9.27
2018-04-08T02:09:58.817Z,11.53
2018-04-08T02:12:25.811Z,10.13
2018-04-08T02:14:52.793Z,12.03
2018-04-08T02:17:19.068Z,10.53
2018-04-08T02:19:46.054Z,10.97
2018-04-08T02:22:12.245Z,11.17
2018-04-08T02:24:39.226Z,9.57
2018-04-08T02:27:05.570Z,10.23
2018-04-08T02:29:31.787Z,10.10
2018-04-08T02:31:58.029Z,8.60
2018-04-08T02:34:24.243Z,12.23
2018-04-08T02:36:50.457Z,9.47
2018-04-08T02:39:16.697Z,10.27
2018-04-08T02:41:43.138Z,10.03
2018-04-08T02:44:10.094Z,10.13
2018-04-08T02:46:36.344Z,9.17
2018-04-08T02:49:02.606Z,11.00
2018-04-08T02:51:29.573Z,8.23
2018-04-08T02:53:55.847Z,10.97
2018-04-08T02:56:22.998Z,12.03
2018-04-08T02:58:49.333Z,12.03
2018-04-08T03:01:16.329Z,10.03
2018-04-08T03:03:43.382Z,13.90
2018-04-08T03:06:09.636Z,9.83
2018-04-08T03:08:35.874Z,9.90
2018-04-08T03:11:02.090Z,10.83
2018-04-08T03:13:28.316Z,9.20
2018-04-08T03:15:55.290Z,10.27
2018-04-08T03:18:21.517Z,8.30
2018-04-08T03:20:48.599Z,9.30
2018-04-08T03:23:14.972Z,11.67
2018-04-08T03:25:41.258Z,11.47
2018-04-08T03:28:07.454Z,10.37
2018-04-08T03:30:34.483Z,12.43
2018-04-08T03:33:00.715Z,9.37
2018-04-08T03:35:27.034Z,10.43
2018-04-08T03:37:53.368Z,8.70
2018-04-08T03:40:19.719Z,11.20
2018-04-08T03:42:46.847Z,12.17
2018-04-08T03:45:13.069Z,9.63
2018-04-08T03:47:40.037Z,14.93
2018-04-08T03:50:06.262Z,10.10
2018-04-08T03:52:32.508Z,9.60
2018-04-08T03:54:59.521Z,9.43
2018-04-08T03:57:25.774Z,11.53
2018-04-08T03:59:52.058Z,9.70
2018-04-08T04:02:18.324Z,11.03
2018-04-08T04:04:45.346Z,11.60
2018-04-08T04:07:11.586Z,11.50
2018-04-08T04:09:37.786Z,10.17
2018-04-08T04:12:04.115Z,10.47
2018-04-08T04:14:30.348Z,11.03
2018-04-08T04:16:56.715Z,9.47
2018-04-08T04:19:36.072Z,9.43
2018-04-08T04:22:15.204Z,9.43
2018-04-08T04:24:53.770Z,9.10
2018-04-08T04:27:20.102Z,11.00
2018-04-08T04:29:46.392Z,10.10
2018-04-08T04:32:12.727Z,10.90
2018-04-08T04:34:38.998Z,12.00
2018-04-08T04:37:05.228Z,10.57
2018-04-08T04:39:31.496Z,13.23
2018-04-08T04:41:58.606Z,10.43
2018-04-08T04:44:24.837Z,7.87
2018-04-08T04:46:51.050Z,9.23
2018-04-08T04:49:17.276Z,9.03
2018-04-08T04:51:43.475Z,10.23
2018-04-08T04:54:09.698Z,12.20
2018-04-08T04:56:35.955Z,10.60
2018-04-08T04:59:02.217Z,9.30
2018-04-08T05:01:29.550Z,10.50
2018-04-08T05:04:00.855Z,9.20
2018-04-08T05:06:27.262Z,18.33
2018-04-08T05:08:54.274Z,10.73
2018-04-08T05:11:20.522Z,10.53
2018-04-08T05:13:46.729Z,9.50
2018-04-08T05:16:12.980Z,12.43
2018-04-08T05:18:39.361Z,11.30
2018-04-08T05:21:06.458Z,11.47
2018-04-08T05:23:33.655Z,11.70
2018-04-08T05:25:59.956Z,9.67
2018-04-08T05:28:27.026Z,11.10
2018-04-08T05:30:53.241Z,13.40
2018-04-08T05:33:19.597Z,13.07
2018-04-08T05:35:45.809Z,9.43
2018-04-08T05:38:12.061Z,13.03
2018-04-08T05:40:38.317Z,12.27
2018-04-08T05:43:05.395Z,13.70
2018-04-08T05:45:32.370Z,10.37
2018-04-08T05:47:58.614Z,12.20
2018-04-08T05:50:24.829Z,11.10
2018-04-08T05:52:51.128Z,9.93
2018-04-08T05:55:18.152Z,10.63
2018-04-08T05:57:45.212Z,9.07
2018-04-08T06:00:11.507Z,9.47
2018-04-08T06:02:38.597Z,14.60
2018-04-08T06:05:04.880Z,11.70
2018-04-08T06:07:31.135Z,12.10
2018-04-08T06:09:57.345Z,12.93
2018-04-08T06:12:23.660Z,13.63
2018-04-08T06:14:49.877Z,11.10
2018-04-08T06:17:16.155Z,10.13
2018-04-08T06:19:42.642Z,11.17
2018-04-08T06:22:09.673Z,10.07
2018-04-08T06:24:35.921Z,13.87
2018-04-08T06:27:02.209Z,13.37
2018-04-08T06:29:29.214Z,12.93
2018-04-08T06:31:55.441Z,11.33
2018-04-08T06:34:21.816Z,10.90
2018-04-08T06:36:48.374Z,10.00
2018-04-08T06:39:15.444Z,12.37
2018-04-08T06:41:42.030Z,11.00
2018-04-08T06:44:08.319Z,14.00
2018-04-08T06:46:34.560Z,10.30
2018-04-08T06:49:00.935Z,11.93
2018-04-08T06:51:27.784Z,12.47
2018-04-08T06:53:54.662Z,13.27
2018-04-08T06:56:20.937Z,11.63
2018-04-08T06:58:47.417Z,11.77
2018-04-08T07:01:13.772Z,13.70
2018-04-08T07:03:40.134Z,10.83
2018-04-08T07:06:07.255Z,10.70
2018-04-08T07:08:33.545Z,12.13
2018-04-08T07:11:00.107Z,13.47
2018-04-08T07:13:26.508Z,14.30
2018-04-08T07:15:52.989Z,10.97
2018-04-08T07:18:21.177Z,12.73
2018-04-08T07:20:47.624Z,10.47
2018-04-08T07:23:13.947Z,13.53
2018-04-08T07:25:40.213Z,13.30
2018-04-08T07:28:06.479Z,14.77
2018-04-08T07:30:32.742Z,17.17
2018-04-08T07:32:59.898Z,12.23
2018-04-08T07:35:26.170Z,12.77
2018-04-08T07:37:53.195Z,14.73
2018-04-08T07:40:19.546Z,15.53
2018-04-08T07:42:45.758Z,11.00
2018-04-08T07:45:12.431Z,12.40
2018-04-08T07:47:39.112Z,13.47
2018-04-08T07:50:05.878Z,12.73
2018-04-08T07:52:32.358Z,15.23
2018-04-08T07:54:58.835Z,14.40
2018-04-08T07:57:25.912Z,14.37
2018-04-08T07:59:53.120Z,11.60
2018-04-08T08:02:20.330Z,14.77
2018-04-08T08:04:46.786Z,12.07
2018-04-08T08:07:13.025Z,10.57
2018-04-08T08:09:39.271Z,11.87
2018-04-08T08:12:05.829Z,11.03
2018-04-08T08:14:33.034Z,11.17
2018-04-08T08:16:59.579Z,15.73
2018-04-08T08:19:25.846Z,15.10
2018-04-08T08:21:52.081Z,14.73
2018-04-08T08:24:18.330Z,12.93
2018-04-08T08:26:44.741Z,13.93
2018-04-08T08:29:12.854Z,12.67
2018-04-08T08:31:39.528Z,14.40
2018-04-08T08:34:07.125Z,11.57
2018-04-08T08:36:36.554Z,12.13
2018-04-08T08:39:03.267Z,11.00
2018-04-08T08:41:29.683Z,15.17
2018-04-08T08:43:56.245Z,14.27
2018-04-08T08:46:22.518Z,12.33
2018-04-08T08:48:48.777Z,15.07
2018-04-08T08:51:14.973Z,11.17
2018-04-08T08:53:41.206Z,14.30
2018-04-08T08:56:07.565Z,15.37
2018-04-08T08:58:34.788Z,11.00
2018-04-08T09:01:01.027Z,12.27
2018-04-08T09:03:27.266Z,13.37
2018-04-08T09:05:54.327Z,15.20
2018-04-08T09:08:20.605Z,12.63
2018-04-08T09:10:46.871Z,12.23
2018-04-08T09:13:13.119Z,12.13
2018-04-08T09:15:39.434Z,13.73
2018-04-08T09:18:06.447Z,14.33
2018-04-08T09:23:44.531Z,11.60
2018-04-08T09:26:10.946Z,13.37
2018-04-08T09:28:37.333Z,15.03
2018-04-08T09:31:03.582Z,12.83
2018-04-08T09:33:29.836Z,13.83
2018-04-08T09:35:56.069Z,13.83
2018-04-08T09:38:23.032Z,15.57
2018-04-08T09:40:49.298Z,15.23
2018-04-08T09:43:15.543Z,13.30
2018-04-08T09:45:41.856Z,15.13
2018-04-08T09:48:08.132Z,14.13
2018-04-08T09:50:35.100Z,19.57
2018-04-08T09:53:01.307Z,15.60
2018-04-08T09:55:28.307Z,15.83
2018-04-08T09:58:14.177Z,16.90
2018-04-08T10:00:50.399Z,16.23
2018-04-08T10:03:35.296Z,17.03
2018-04-08T10:06:01.568Z,15.83
2018-04-08T10:08:27.874Z,15.23
2018-04-08T10:10:54.157Z,16.70
2018-04-08T10:13:21.277Z,17.10
2018-04-08T10:15:47.546Z,15.70
2018-04-08T10:18:13.861Z,14.63
2018-04-08T10:20:40.953Z,15.23
2018-04-08T10:23:07.217Z,17.27
2018-04-08T10:25:33.436Z,16.00
2018-04-08T10:27:59.650Z,17.23
2018-04-08T10:30:26.007Z,18.83
2018-04-08T10:32:53.320Z,17.57
2018-04-08T10:35:21.921Z,13.83
2018-04-08T10:37:48.213Z,15.57
2018-04-08T10:40:14.425Z,15.37
2018-04-08T10:42:41.490Z,14.83
2018-04-08T10:45:07.720Z,15.70
2018-04-08T10:47:34.009Z,15.47
2018-04-08T10:50:00.566Z,17.90
2018-04-08T10:52:26.870Z,14.50
2018-04-08T10:54:53.259Z,18.47
2018-04-08T10:57:20.294Z,16.23
2018-04-08T10:59:46.530Z,16.40
2018-04-08T11:02:12.729Z,16.90
2018-04-08T11:04:39.689Z,18.97
2018-04-08T11:07:06.034Z,18.40
2018-04-08T11:09:32.403Z,19.73
2018-04-08T11:11:58.677Z,19.13
2018-04-08T11:14:25.114Z,17.63
2018-04-08T11:16:51.372Z,18.23
2018-04-08T11:19:17.606Z,17.10
2018-04-08T11:21:43.824Z,20.40
2018-04-08T11:24:10.225Z,19.67
2018-04-08T11:26:36.566Z,19.17
2018-04-08T11:29:02.831Z,13.83
2018-04-08T11:31:30.162Z,15.03
2018-04-08T11:33:57.175Z,16.17
2018-04-08T11:36:23.441Z,14.63
2018-04-08T11:38:49.642Z,11.93
2018-04-08T11:41:15.956Z,18.90
2018-04-08T11:43:42.162Z,19.87
2018-04-08T11:46:09.200Z,18.77
2018-04-08T11:48:35.607Z,18.40
2018-04-08T11:51:01.923Z,17.87
2018-04-08T11:53:28.133Z,16.50
2018-04-08T11:55:54.400Z,19.27
2018-04-08T11:58:20.648Z,18.80
2018-04-08T12:00:46.912Z,15.50
2018-04-08T12:03:13.277Z,7.90
2018-04-08T12:05:39.718Z,22.27
2018-04-08T12:08:06.090Z,59.13
2018-04-08T12:10:32.398Z,22.00
2018-04-08T12:12:59.407Z,18.80
2018-04-08T12:15:25.758Z,18.43
2018-04-08T12:17:51.970Z,19.57
2018-04-08T12:20:18.941Z,18.03
2018-04-08T12:22:46.457Z,19.33
2018-04-08T12:25:13.600Z,18.87
2018-04-08T12:27:39.894Z,18.10
2018-04-08T12:30:06.194Z,17.13
2018-04-08T12:32:32.446Z,17.97
2018-04-08T12:34:58.700Z,22.07
2018-04-08T12:37:26.887Z,17.37
2018-04-08T12:39:53.414Z,16.00
2018-04-08T12:42:19.916Z,18.70
2018-04-08T12:44:46.238Z,16.60
2018-04-08T12:47:13.922Z,18.33
2018-04-08T12:49:41.480Z,21.07
2018-04-08T12:52:08.464Z,17.10
2018-04-08T12:54:35.481Z,17.77
2018-04-08T12:57:01.798Z,18.30
2018-04-08T12:59:28.823Z,16.77
2018-04-08T13:01:55.217Z,16.33
2018-04-08T13:04:21.510Z,12.40
2018-04-08T13:06:48.551Z,16.17
2018-04-08T13:09:14.922Z,18.03
2018-04-08T13:11:41.207Z,13.37
2018-04-08T13:14:08.267Z,18.83
2018-04-08T13:16:35.257Z,17.77
2018-04-08T13:19:01.506Z,15.53
2018-04-08T13:21:27.737Z,17.70
2018-04-08T13:23:54.111Z,16.83
2018-04-08T13:26:20.373Z,19.63
2018-04-08T13:28:46.612Z,16.73
2018-04-08T13:31:12.877Z,18.00
2018-04-08T13:33:39.906Z,17.77
2018-04-08T13:36:06.142Z,17.57
2018-04-08T13:38:32.392Z,16.37
2018-04-08T13:40:59.321Z,21.07
2018-04-08T13:43:26.304Z,20.03
2018-04-08T13:45:52.634Z,19.27
2018-04-08T13:48:18.882Z,18.50
2018-04-08T13:50:45.138Z,18.87
2018-04-08T13:53:11.366Z,18.07
2018-04-08T13:55:38.338Z,17.33
2018-04-08T13:58:04.659Z,18.50
2018-04-08T14:00:31.342Z,21.17
2018-04-08T14:02:58.082Z,15.73
2018-04-08T14:05:24.486Z,16.90
2018-04-08T14:07:50.805Z,19.03
2018-04-08T14:10:17.094Z,19.80
2018-04-08T14:12:43.880Z,17.77
2018-04-08T14:15:10.695Z,17.73
2018-04-08T14:17:37.102Z,17.00
2018-04-08T14:20:04.479Z,17.40
2018-04-08T14:22:33.502Z,17.50
2018-04-08T14:25:02.342Z,15.03
2018-04-08T14:27:29.736Z,17.07
2018-04-08T14:29:56.375Z,18.63
2018-04-08T14:32:38.871Z,17.17
2018-04-08T14:35:05.324Z,15.07
2018-04-08T14:37:32.137Z,15.93
2018-04-08T14:39:58.971Z,17.03
2018-04-08T14:42:25.975Z,14.47
2018-04-08T14:44:52.270Z,14.23
2018-04-08T14:47:19.312Z,16.77
2018-04-08T14:49:46.354Z,16.03
2018-04-08T14:52:12.633Z,14.13
2018-04-08T14:54:38.925Z,15.70
2018-04-08T14:57:06.025Z,16.07
2018-04-08T14:59:32.344Z,15.20
2018-04-08T15:01:58.793Z,16.83
2018-04-08T15:04:26.201Z,16.50
2018-04-08T15:06:52.509Z,15.37
2018-04-08T15:09:19.593Z,14.37
2018-04-08T15:11:46.674Z,16.70
2018-04-08T15:14:13.014Z,13.90
2018-04-08T15:16:40.383Z,16.63
2018-04-08T15:19:07.593Z,19.03
2018-04-08T15:21:34.070Z,13.90
2018-04-08T15:24:01.213Z,13.90
2018-04-08T15:26:29.190Z,17.47
2018-04-08T15:28:56.164Z,16.17
2018-04-08T15:31:22.510Z,16.40
2018-04-08T15:33:48.865Z,16.47
2018-04-08T15:36:16.003Z,16.60
2018-04-08T15:38:42.488Z,14.27
2018-04-08T15:41:08.930Z,14.00
2018-04-08T15:43:35.218Z,19.03
2018-04-08T15:46:01.531Z,16.30
2018-04-08T15:48:27.812Z,13.53
2018-04-08T15:50:54.920Z,17.10
2018-04-08T15:53:21.981Z,16.57
2018-04-08T15:55:48.979Z,22.30
2018-04-08T15:58:15.352Z,15.40
2018-04-08T16:00:41.578Z,16.23
2018-04-08T16:03:07.869Z,15.40
2018-04-08T16:05:34.173Z,18.87
2018-04-08T16:08:01.230Z,14.33
2018-04-08T16:10:27.551Z,13.43
2018-04-08T16:12:54.695Z,12.63
2018-04-08T16:15:21.095Z,17.03
2018-04-08T16:17:47.536Z,14.70
2018-04-08T16:20:15.011Z,16.03
2018-04-08T16:22:41.986Z,14.63
2018-04-08T16:25:08.283Z,13.80
2018-04-08T16:27:35.351Z,16.80
2018-04-08T16:30:01.648Z,19.87
2018-04-08T16:32:28.734Z,12.23
2018-04-08T16:34:55.178Z,11.40
2018-04-08T16:37:21.701Z,16.10
2018-04-08T16:39:48.030Z,16.50
2018-04-08T16:42:14.310Z,13.80
2018-04-08T16:44:40.598Z,14.23
2018-04-08T16:47:06.890Z,14.40
2018-04-08T16:49:33.866Z,13.73
2018-04-08T16:52:00.146Z,15.87
2018-04-08T16:54:26.571Z,12.80
2018-04-08T16:56:52.959Z,16.53
2018-04-08T16:59:19.247Z,10.70
2018-04-08T17:01:45.533Z,13.03
2018-04-08T17:04:12.720Z,15.10
2018-04-08T17:06:39.008Z,11.77
2018-04-08T17:09:05.999Z,11.70
2018-04-08T17:11:32.303Z,11.20
2018-04-08T17:13:58.691Z,10.80
2018-04-08T17:16:24.924Z,14.30
2018-04-08T17:18:51.173Z,13.37
2018-04-08T17:21:17.472Z,13.73
2018-04-08T17:23:44.485Z,16.70
2018-04-08T17:26:10.796Z,17.33
2018-04-08T17:28:37.170Z,16.07
2018-04-08T17:31:04.302Z,19.33
2018-04-08T17:33:31.671Z,17.40
2018-04-08T17:35:58.013Z,15.67
2018-04-08T17:38:24.757Z,14.33
2018-04-08T17:40:51.885Z,16.00
2018-04-08T17:43:19.194Z,15.33
2018-04-08T17:45:46.179Z,16.00
2018-04-08T17:48:12.826Z,18.03
2018-04-08T17:50:39.210Z,14.40
2018-04-08T17:53:05.802Z,19.77
2018-04-08T17:55:32.415Z,12.30
2018-04-08T17:57:58.674Z,18.17
2018-04-08T18:00:25.706Z,15.17
2018-04-08T18:02:52.884Z,15.07
2018-04-08T18:05:19.279Z,13.93
2018-04-08T18:07:46.263Z,13.67
2018-04-08T18:10:12.695Z,13.17
2018-04-08T18:12:39.549Z,16.27
2018-04-08T18:15:06.179Z,16.20
2018-04-08T18:17:33.773Z,16.63
2018-04-08T18:20:00.144Z,16.13
2018-04-08T18:22:27.205Z,14.57
2018-04-08T18:24:53.814Z,14.80
2018-04-08T18:27:21.366Z,14.13
2018-04-08T18:29:48.713Z,15.57
2018-04-08T18:32:15.677Z,14.63
2018-04-08T18:34:42.623Z,17.80
2018-04-08T18:37:09.047Z,14.07
2018-04-08T18:39:36.177Z,13.30
2018-04-08T18:42:02.413Z,15.03
2018-04-08T18:44:31.659Z,15.07
2018-04-08T18:46:58.106Z,12.50
2018-04-08T18:52:01.567Z,14.23
2018-04-08T18:54:30.292Z,19.13
2018-04-08T18:57:02.124Z,17.57
2018-04-08T18:59:30.532Z,15.73
2018-04-08T19:02:03.488Z,13.77
2018-04-08T19:04:41.009Z,18.03
2018-04-08T19:07:24.465Z,15.33
2018-04-08T19:09:51.144Z,15.93
2018-04-08T19:12:24.151Z,9.20
2018-04-08T19:14:58.070Z,20.10
2018-04-08T19:17:30.883Z,15.20
2018-04-08T19:19:57.661Z,15.43
2018-04-08T19:22:25.205Z,17.03
2018-04-08T19:24:53.206Z,16.80
2018-04-08T19:27:25.968Z,14.00
2018-04-08T19:29:53.136Z,15.80
2018-04-08T19:32:20.074Z,14.97
2018-04-08T19:34:46.691Z,16.77
2018-04-08T19:37:13.556Z,14.73
2018-04-08T19:39:40.822Z,22.13
2018-04-08T19:42:07.119Z,19.03
2018-04-08T19:44:34.133Z,15.77
2018-04-08T19:47:03.093Z,19.93
2018-04-08T19:49:30.147Z,16.50
2018-04-08T19:51:58.097Z,24.07
2018-04-08T19:54:26.854Z,17.83
2018-04-08T19:57:00.380Z,15.60
2018-04-08T19:59:28.899Z,17.20
2018-04-08T20:02:08.972Z,19.63
2018-04-08T20:04:36.069Z,19.03
2018-04-08T20:07:05.987Z,16.67
2018-04-08T20:09:32.533Z,17.33
2018-04-08T20:11:58.922Z,17.17
2018-04-08T20:14:25.625Z,14.17
2018-04-08T20:16:52.810Z,17.60
2018-04-08T20:19:19.833Z,16.93
2018-04-08T20:21:46.101Z,18.57
2018-04-08T20:24:12.409Z,22.80
2018-04-08T20:26:38.665Z,20.97
2018-04-08T20:29:06.757Z,19.30
2018-04-08T20:31:35.213Z,19.60
2018-04-08T20:34:08.509Z,19.20
2018-04-08T20:36:35.873Z,19.37
2018-04-08T20:39:02.296Z,19.33
2018-04-08T20:41:29.628Z,18.73
2018-04-08T20:43:55.981Z,13.73
2018-04-08T20:46:23.676Z,16.30
2018-04-08T20:48:51.773Z,19.37
2018-04-08T20:51:18.069Z,15.13
2018-04-08T20:53:44.475Z,17.63
2018-04-08T20:56:11.024Z,17.40
2018-04-08T20:58:37.494Z,17.13
2018-04-08T21:01:04.106Z,21.57
2018-04-08T21:03:30.546Z,18.00
2018-04-08T21:05:57.523Z,17.33
2018-04-08T21:08:23.801Z,15.23
2018-04-08T21:10:50.030Z,19.03
2018-04-08T21:13:16.337Z,17.40
2018-04-08T21:15:43.358Z,16.00
2018-04-08T21:18:09.714Z,17.87
2018-04-08T21:20:36.070Z,20.00
2018-04-08T21:23:02.332Z,15.03
2018-04-08T21:25:28.612Z,17.83
2018-04-08T21:27:54.956Z,14.90
2018-04-08T21:30:21.240Z,17.30
2018-04-08T21:32:47.519Z,17.50
2018-04-08T21:35:13.823Z,15.43
2018-04-08T21:37:40.149Z,14.77
2018-04-08T21:40:06.625Z,14.50
2018-04-08T21:42:32.853Z,12.93
2018-04-08T21:44:59.139Z,17.73
2018-04-08T21:47:25.410Z,16.17
2018-04-08T21:49:51.709Z,19.53
2018-04-08T21:52:18.306Z,18.30
2018-04-08T21:54:45.077Z,15.07
2018-04-08T21:57:11.598Z,16.47
2018-04-08T21:59:37.931Z,20.30
2018-04-08T22:02:04.236Z,15.57
2018-04-08T22:04:30.581Z,17.37
2018-04-08T22:06:57.580Z,19.70
2018-04-08T22:09:25.365Z,15.80
2018-04-08T22:11:52.313Z,18.33
2018-04-08T22:14:18.728Z,17.10
2018-04-08T22:16:45.006Z,21.63
2018-04-08T22:19:11.975Z,20.97
2018-04-08T22:21:38.271Z,18.97
2018-04-08T22:24:05.265Z,16.73
2018-04-08T22:26:31.540Z,18.43
2018-04-08T22:28:57.793Z,15.20
2018-04-08T22:31:24.134Z,17.30
2018-04-08T22:33:50.415Z,12.57
2018-04-08T22:36:16.876Z,15.20
2018-04-08T22:38:43.145Z,14.53
2018-04-08T22:41:09.475Z,16.93
2018-04-08T22:43:35.702Z,17.83
2018-04-08T22:46:01.948Z,15.27
2018-04-08T22:48:28.185Z,14.60
2018-04-08T22:50:54.619Z,16.13
2018-04-08T22:53:21.674Z,16.73
2018-04-08T22:55:48.686Z,15.80
2018-04-08T22:58:15.013Z,17.87
2018-04-08T23:00:41.260Z,19.97
2018-04-08T23:03:07.473Z,13.60
2018-04-08T23:05:33.759Z,19.00
2018-04-08T23:08:00.781Z,16.60
2018-04-08T23:10:27.090Z,18.97
2018-04-08T23:12:53.348Z,18.40
2018-04-08T23:15:19.611Z,18.40
2018-04-08T23:17:45.843Z,17.70
2018-04-08T23:20:12.879Z,20.33
2018-04-08T23:22:39.123Z,13.80
2018-04-08T23:25:05.366Z,17.80
2018-04-08T23:27:31.615Z,17.13
2018-04-08T23:29:57.902Z,19.57
2018-04-08T23:32:24.168Z,12.93
2018-04-08T23:34:50.448Z,17.70
2018-04-08T23:37:16.725Z,13.73
2018-04-08T23:39:42.945Z,13.50
2018-04-08T23:42:09.196Z,14.80
2018-04-08T23:44:35.494Z,17.20
2018-04-08T23:47:01.760Z,17.70
2018-04-08T23:49:29.077Z,19.97
2018-04-08T23:51:55.317Z,17.47
2018-04-08T23:54:21.630Z,14.97
2018-04-08T23:56:47.881Z,16.70
2018-04-08T23:59:14.113Z,17.60
